createdAt,value
2017-05-25T00:00:45.385Z,28.00
2017-05-25T00:03:12.836Z,31.10
2017-05-25T00:05:40.300Z,28.80
2017-05-25T00:08:07.796Z,30.54
2017-05-25T00:10:35.350Z,27.08
2017-05-25T00:13:02.898Z,26.36
2017-05-25T00:15:30.346Z,30.80
2017-05-25T00:17:57.792Z,25.48
2017-05-25T00:20:25.232Z,27.78
2017-05-25T00:22:52.764Z,31.40
2017-05-25T00:25:20.216Z,27.44
2017-05-25T00:27:47.753Z,28.76
2017-05-25T00:30:15.289Z,29.60
2017-05-25T00:32:42.734Z,25.16
2017-05-25T00:35:10.177Z,27.20
2017-05-25T00:37:37.620Z,31.86
2017-05-25T00:40:05.141Z,30.70
2017-05-25T00:42:32.593Z,29.10
2017-05-25T00:45:00.037Z,29.06
2017-05-25T00:47:27.493Z,36.22
2017-05-25T00:49:55.036Z,25.52
2017-05-25T00:52:22.586Z,29.72
2017-05-25T00:54:50.128Z,28.18
2017-05-25T00:57:17.569Z,28.26
2017-05-25T00:59:45.018Z,29.20
2017-05-25T01:02:12.457Z,26.72
2017-05-25T01:04:39.909Z,26.16
2017-05-25T01:07:07.359Z,26.62
2017-05-25T01:09:34.888Z,28.14
2017-05-25T01:12:02.333Z,27.52
2017-05-25T01:14:29.784Z,24.64
2017-05-25T01:16:57.313Z,27.00
2017-05-25T01:19:24.808Z,28.02
2017-05-25T01:21:52.248Z,26.88
2017-05-25T01:24:19.689Z,26.68
2017-05-25T01:26:47.137Z,27.44
2017-05-25T01:29:14.577Z,27.58
2017-05-25T01:31:42.033Z,25.46
2017-05-25T01:34:09.534Z,25.82
2017-05-25T01:36:37.177Z,26.82
2017-05-25T01:39:04.620Z,29.00
2017-05-25T01:41:32.145Z,27.74
2017-05-25T01:43:59.692Z,27.22
2017-05-25T01:46:27.129Z,28.22
2017-05-25T01:48:54.568Z,27.50
2017-05-25T01:51:22.020Z,28.68
2017-05-25T01:53:49.465Z,27.92
2017-05-25T01:56:17.005Z,28.72
2017-05-25T01:58:44.446Z,25.66
2017-05-25T02:01:11.958Z,26.22
2017-05-25T02:03:39.417Z,25.86
2017-05-25T02:06:06.873Z,26.90
2017-05-25T02:08:34.325Z,26.30
2017-05-25T02:11:01.765Z,27.08
2017-05-25T02:13:29.210Z,26.52
2017-05-25T02:15:56.657Z,27.56
2017-05-25T02:18:24.206Z,26.62
2017-05-25T02:20:51.744Z,27.32
2017-05-25T02:23:19.225Z,27.24
2017-05-25T02:25:46.741Z,25.68
2017-05-25T02:28:14.381Z,25.40
2017-05-25T02:30:41.825Z,29.32
2017-05-25T02:33:09.289Z,28.08
2017-05-25T02:35:36.723Z,25.48
2017-05-25T02:38:04.249Z,27.40
2017-05-25T02:40:31.709Z,28.70
2017-05-25T02:42:59.150Z,27.56
2017-05-25T02:45:26.613Z,25.68
2017-05-25T02:47:54.069Z,29.10
2017-05-25T02:50:21.508Z,26.58
2017-05-25T02:52:48.956Z,28.98
2017-05-25T02:55:16.461Z,26.92
2017-05-25T02:57:43.905Z,27.50
2017-05-25T03:00:11.345Z,27.20
2017-05-25T03:02:38.789Z,26.36
2017-05-25T03:05:06.317Z,27.12
2017-05-25T03:07:33.758Z,27.04
2017-05-25T03:10:01.310Z,29.40
2017-05-25T03:12:28.852Z,26.10
2017-05-25T03:14:56.297Z,26.54
2017-05-25T03:17:23.745Z,28.72
2017-05-25T03:19:51.189Z,28.28
2017-05-25T03:22:18.646Z,26.92
2017-05-25T03:24:46.095Z,25.42
2017-05-25T03:27:13.569Z,27.40
2017-05-25T03:29:41.021Z,25.78
2017-05-25T03:32:08.461Z,27.94
2017-05-25T03:34:35.912Z,26.00
2017-05-25T03:37:04.305Z,28.32
2017-05-25T03:39:31.764Z,23.82
2017-05-25T03:41:59.236Z,26.12
2017-05-25T03:44:26.685Z,27.76
2017-05-25T03:46:54.152Z,30.90
2017-05-25T03:49:21.589Z,26.80
2017-05-25T03:51:49.033Z,24.62
2017-05-25T03:54:16.500Z,24.86
2017-05-25T03:56:43.944Z,25.28
2017-05-25T03:59:11.565Z,28.28
2017-05-25T04:01:39.002Z,26.00
2017-05-25T04:04:06.991Z,24.58
2017-05-25T04:06:34.461Z,26.82
2017-05-25T04:09:02.889Z,25.50
2017-05-25T04:11:30.467Z,26.82
2017-05-25T04:13:57.893Z,27.42
2017-05-25T04:16:25.353Z,27.58
2017-05-25T04:18:52.806Z,26.70
2017-05-25T04:21:20.313Z,25.66
2017-05-25T04:23:47.770Z,25.20
2017-05-25T04:26:15.321Z,28.56
2017-05-25T04:28:42.849Z,26.90
2017-05-25T04:31:10.391Z,28.48
2017-05-25T04:33:37.932Z,27.76
2017-05-25T04:36:05.394Z,27.12
2017-05-25T04:38:32.837Z,30.34
2017-05-25T04:41:00.337Z,26.34
2017-05-25T04:43:27.786Z,27.10
2017-05-25T04:46:00.025Z,27.70
2017-05-25T04:48:27.477Z,27.82
2017-05-25T04:50:54.946Z,27.28
2017-05-25T04:53:22.390Z,25.66
2017-05-25T04:55:49.931Z,27.32
2017-05-25T04:58:17.364Z,29.54
2017-05-25T05:00:44.912Z,34.06
2017-05-25T05:03:12.360Z,30.92
2017-05-25T05:05:39.909Z,30.80
2017-05-25T05:08:07.360Z,31.38
2017-05-25T05:10:34.897Z,33.70
2017-05-25T05:13:02.512Z,44.82
2017-05-25T05:15:29.937Z,41.06
2017-05-25T05:17:57.412Z,38.90
2017-05-25T05:20:24.887Z,35.40
2017-05-25T05:22:52.325Z,35.28
2017-05-25T05:25:19.876Z,37.26
2017-05-25T05:27:47.402Z,34.76
2017-05-25T05:30:14.857Z,34.04
2017-05-25T05:32:42.295Z,37.10
2017-05-25T05:35:09.802Z,34.20
2017-05-25T05:37:37.267Z,36.80
2017-05-25T05:40:04.717Z,31.38
2017-05-25T05:42:32.169Z,31.38
2017-05-25T05:44:59.708Z,36.16
2017-05-25T05:47:27.160Z,36.20
2017-05-25T05:49:54.621Z,36.68
2017-05-25T05:52:22.099Z,29.98
2017-05-25T05:54:49.552Z,30.58
2017-05-25T05:57:16.996Z,33.82
2017-05-25T05:59:44.448Z,38.14
2017-05-25T06:02:11.898Z,30.48
2017-05-25T06:04:39.331Z,33.54
2017-05-25T06:07:06.793Z,28.00
2017-05-25T06:09:34.305Z,31.32
2017-05-25T06:12:01.741Z,39.12
2017-05-25T06:14:29.232Z,35.46
2017-05-25T06:16:56.681Z,32.24
2017-05-25T06:19:24.131Z,32.50
2017-05-25T06:21:51.577Z,30.98
2017-05-25T06:24:19.033Z,27.20
2017-05-25T06:26:46.470Z,32.20
2017-05-25T06:29:13.968Z,24.84
2017-05-25T06:31:41.418Z,23.22
2017-05-25T06:34:08.961Z,26.12
2017-05-25T06:36:36.404Z,23.60
2017-05-25T06:39:03.843Z,22.50
2017-05-25T06:41:31.289Z,24.88
2017-05-25T06:43:58.740Z,23.22
2017-05-25T06:46:26.172Z,21.78
2017-05-25T06:48:53.621Z,22.44
2017-05-25T06:51:21.068Z,23.42
2017-05-25T06:53:48.522Z,26.32
2017-05-25T06:56:16.058Z,24.78
2017-05-25T06:58:43.496Z,21.18
2017-05-25T07:01:10.949Z,18.56
2017-05-25T07:03:38.486Z,20.08
2017-05-25T07:06:06.013Z,17.48
2017-05-25T07:08:33.456Z,22.44
2017-05-25T07:11:00.904Z,18.20
2017-05-25T07:13:28.357Z,16.30
2017-05-25T07:15:55.812Z,17.20
2017-05-25T07:18:23.340Z,14.78
2017-05-25T07:20:50.799Z,16.70
2017-05-25T07:23:18.233Z,15.70
2017-05-25T07:25:45.681Z,14.30
2017-05-25T07:28:13.125Z,17.78
2017-05-25T07:30:40.569Z,16.38
2017-05-25T07:33:08.098Z,17.16
2017-05-25T07:35:35.537Z,18.40
2017-05-25T07:38:03.083Z,17.26
2017-05-25T07:40:30.528Z,18.14
2017-05-25T07:42:58.193Z,19.18
2017-05-25T07:45:25.628Z,18.92
2017-05-25T07:47:53.061Z,16.18
2017-05-25T07:50:20.513Z,16.22
2017-05-25T07:52:47.972Z,18.94
2017-05-25T07:55:15.593Z,20.16
2017-05-25T07:57:43.031Z,18.52
2017-05-25T08:00:10.480Z,17.52
2017-05-25T08:02:37.932Z,18.32
2017-05-25T08:05:05.385Z,14.80
2017-05-25T08:07:32.841Z,15.98
2017-05-25T08:10:00.345Z,17.78
2017-05-25T08:12:27.891Z,18.68
2017-05-25T08:14:55.340Z,19.48
2017-05-25T08:17:22.781Z,17.88
2017-05-25T08:19:50.231Z,18.18
2017-05-25T08:22:17.674Z,17.84
2017-05-25T08:24:45.120Z,20.52
2017-05-25T08:27:12.594Z,17.12
2017-05-25T08:29:40.049Z,19.26
2017-05-25T08:32:07.580Z,14.90
2017-05-25T08:34:35.026Z,19.46
2017-05-25T08:37:02.511Z,14.14
2017-05-25T08:39:30.061Z,19.16
2017-05-25T08:41:57.507Z,14.70
2017-05-25T08:44:25.054Z,14.50
2017-05-25T08:46:52.504Z,13.54
2017-05-25T08:49:19.955Z,15.92
2017-05-25T08:51:47.401Z,24.94
2017-05-25T08:54:14.842Z,16.10
2017-05-25T08:56:42.356Z,11.54
2017-05-25T08:59:09.803Z,13.86
2017-05-25T09:01:37.346Z,10.84
2017-05-25T09:04:04.897Z,12.16
2017-05-25T09:06:32.341Z,10.08
2017-05-25T09:08:59.877Z,15.36
2017-05-25T09:11:27.321Z,9.94
2017-05-25T09:13:54.866Z,12.24
2017-05-25T09:16:22.317Z,11.10
2017-05-25T09:18:49.762Z,10.78
2017-05-25T09:21:17.202Z,8.26
2017-05-25T09:23:44.845Z,14.72
2017-05-25T09:26:12.390Z,40.72
2017-05-25T09:28:39.837Z,10.46
2017-05-25T09:31:07.893Z,11.72
2017-05-25T09:33:35.432Z,12.16
2017-05-25T09:36:02.877Z,9.90
2017-05-25T09:38:30.312Z,8.30
2017-05-25T09:40:57.753Z,6.02
2017-05-25T09:43:25.192Z,6.32
2017-05-25T09:45:52.636Z,5.60
2017-05-25T09:48:20.085Z,5.62
2017-05-25T09:50:47.521Z,5.48
2017-05-25T09:53:15.077Z,4.96
2017-05-25T09:55:42.548Z,5.70
2017-05-25T09:58:10.065Z,10.18
2017-05-25T10:00:37.604Z,6.72
2017-05-25T10:03:05.149Z,8.18
2017-05-25T10:05:32.598Z,7.26
2017-05-25T10:08:00.034Z,7.92
2017-05-25T10:10:27.572Z,6.24
2017-05-25T10:12:55.120Z,32.20
2017-05-25T10:15:22.640Z,13.96
2017-05-25T10:17:50.080Z,6.86
2017-05-25T10:20:17.513Z,5.56
2017-05-25T10:22:44.961Z,5.98
2017-05-25T10:25:12.448Z,5.60
2017-05-25T10:27:39.937Z,5.10
2017-05-25T10:30:07.388Z,4.70
2017-05-25T10:32:34.837Z,6.06
2017-05-25T10:35:02.275Z,5.64
2017-05-25T10:37:29.718Z,6.32
2017-05-25T10:39:57.193Z,7.98
2017-05-25T10:42:24.647Z,4.76
2017-05-25T10:44:52.085Z,5.38
2017-05-25T10:47:19.535Z,5.34
2017-05-25T10:49:46.973Z,6.34
2017-05-25T10:52:14.405Z,4.78
2017-05-25T10:54:41.853Z,6.82
2017-05-25T10:57:09.290Z,6.82
2017-05-25T10:59:36.721Z,5.34
2017-05-25T11:02:04.181Z,5.00
2017-05-25T11:04:31.613Z,6.60
2017-05-25T11:06:59.067Z,10.62
2017-05-25T11:09:26.511Z,10.70
2017-05-25T11:11:54.048Z,6.50
2017-05-25T11:14:21.493Z,5.22
2017-05-25T11:16:49.015Z,4.32
2017-05-25T11:19:16.608Z,8.54
2017-05-25T11:21:44.013Z,5.36
2017-05-25T11:24:11.456Z,5.16
2017-05-25T11:26:38.925Z,6.88
2017-05-25T11:29:06.377Z,4.26
2017-05-25T11:31:33.826Z,7.54
2017-05-25T11:34:01.266Z,4.32
2017-05-25T11:36:28.692Z,7.52
2017-05-25T11:38:56.158Z,3.50
2017-05-25T11:41:23.609Z,5.34
2017-05-25T11:43:51.141Z,4.54
2017-05-25T11:46:18.576Z,3.88
2017-05-25T11:48:46.012Z,4.88
2017-05-25T11:51:13.449Z,6.32
2017-05-25T11:53:40.893Z,5.02
2017-05-25T11:56:08.397Z,4.52
2017-05-25T11:58:35.939Z,9.02
2017-05-25T12:01:03.476Z,15.16
2017-05-25T12:03:30.940Z,4.58
2017-05-25T12:05:58.578Z,4.28
2017-05-25T12:08:26.013Z,4.56
2017-05-25T12:10:53.444Z,7.52
2017-05-25T12:13:20.889Z,4.88
2017-05-25T12:15:48.352Z,6.14
2017-05-25T12:18:15.878Z,7.10
2017-05-25T12:20:43.401Z,5.54
2017-05-25T12:23:10.854Z,3.30
2017-05-25T12:25:38.293Z,4.52
2017-05-25T12:28:06.040Z,3.58
2017-05-25T12:30:33.479Z,4.34
2017-05-25T12:33:00.927Z,5.54
2017-05-25T12:35:28.382Z,4.40
2017-05-25T12:37:55.813Z,3.54
2017-05-25T12:40:23.371Z,23.36
2017-05-25T12:42:50.973Z,4.70
2017-05-25T12:45:18.450Z,3.72
2017-05-25T12:47:45.889Z,5.74
2017-05-25T12:50:13.328Z,4.08
2017-05-25T12:52:40.757Z,3.16
2017-05-25T12:55:08.236Z,4.44
2017-05-25T12:57:35.672Z,3.98
2017-05-25T13:00:03.108Z,4.64
2017-05-25T13:02:30.562Z,6.30
2017-05-25T13:04:58.021Z,4.18
2017-05-25T13:07:25.468Z,4.06
2017-05-25T13:09:53.007Z,4.10
2017-05-25T13:12:20.441Z,4.06
2017-05-25T13:14:47.909Z,3.74
2017-05-25T13:17:15.345Z,4.12
2017-05-25T13:19:42.786Z,3.84
2017-05-25T13:22:10.228Z,3.96
2017-05-25T13:24:37.686Z,3.24
2017-05-25T13:27:05.165Z,3.20
2017-05-25T13:29:32.604Z,5.20
2017-05-25T13:32:00.154Z,15.82
2017-05-25T13:34:27.613Z,5.16
2017-05-25T13:36:55.064Z,8.80
2017-05-25T13:39:22.862Z,2.50
2017-05-25T13:41:50.304Z,3.94
2017-05-25T13:44:17.785Z,3.60
2017-05-25T13:46:45.229Z,4.02
2017-05-25T13:49:12.770Z,3.30
2017-05-25T13:51:40.220Z,2.32
2017-05-25T13:54:07.662Z,5.90
2017-05-25T13:56:35.113Z,2.82
2017-05-25T13:59:02.548Z,3.96
2017-05-25T14:01:30.085Z,3.58
2017-05-25T14:03:57.541Z,3.62
2017-05-25T14:06:24.991Z,3.74
2017-05-25T14:08:52.528Z,2.66
2017-05-25T14:11:19.963Z,3.96
2017-05-25T14:13:47.400Z,3.00
2017-05-25T14:16:14.912Z,3.28
2017-05-25T14:18:42.362Z,3.46
2017-05-25T14:21:09.801Z,5.20
2017-05-25T14:23:37.247Z,5.18
2017-05-25T14:26:04.688Z,7.58
2017-05-25T14:28:32.207Z,2.98
2017-05-25T14:30:59.648Z,3.68
2017-05-25T14:33:27.093Z,3.94
2017-05-25T14:35:54.564Z,7.06
2017-05-25T14:38:22.044Z,2.70
2017-05-25T14:40:49.507Z,6.16
2017-05-25T14:43:16.946Z,3.58
2017-05-25T14:45:44.401Z,3.06
2017-05-25T14:48:11.837Z,6.54
2017-05-25T14:50:39.277Z,3.18
2017-05-25T14:53:06.720Z,3.66
2017-05-25T14:55:34.188Z,2.84
2017-05-25T14:58:01.643Z,3.70
2017-05-25T15:00:29.133Z,3.30
2017-05-25T15:02:56.566Z,5.24
2017-05-25T15:05:24.009Z,3.90
2017-05-25T15:07:51.455Z,3.54
2017-05-25T15:10:18.897Z,5.18
2017-05-25T15:12:46.338Z,3.20
2017-05-25T15:15:13.956Z,3.66
2017-05-25T15:17:41.385Z,4.28
2017-05-25T15:20:08.833Z,3.02
2017-05-25T15:22:36.317Z,6.54
2017-05-25T15:25:03.858Z,2.32
2017-05-25T15:27:31.287Z,2.76
2017-05-25T15:29:58.732Z,2.58
2017-05-25T15:32:26.164Z,4.98
2017-05-25T15:34:53.716Z,3.18
2017-05-25T15:37:21.263Z,5.08
2017-05-25T15:39:48.689Z,3.20
2017-05-25T15:42:16.141Z,3.20
2017-05-25T15:44:43.625Z,3.78
2017-05-25T15:47:11.074Z,2.44
2017-05-25T15:49:38.602Z,3.88
2017-05-25T15:52:06.118Z,2.42
2017-05-25T15:54:33.541Z,4.84
2017-05-25T15:57:01.026Z,2.30
2017-05-25T15:59:28.468Z,3.22
2017-05-25T16:01:55.900Z,4.20
2017-05-25T16:04:23.349Z,3.38
2017-05-25T16:06:50.790Z,4.98
2017-05-25T16:09:18.223Z,3.32
2017-05-25T16:11:45.680Z,2.94
2017-05-25T16:14:13.105Z,3.20
2017-05-25T16:16:40.549Z,2.40
2017-05-25T16:19:07.993Z,2.70
2017-05-25T16:21:35.503Z,3.12
2017-05-25T16:24:02.933Z,2.16
2017-05-25T16:26:30.380Z,4.36
2017-05-25T16:28:57.826Z,1.90
2017-05-25T16:31:25.273Z,3.20
2017-05-25T16:33:52.745Z,1.96
2017-05-25T16:36:20.192Z,4.64
2017-05-25T16:38:47.699Z,3.52
2017-05-25T16:41:15.257Z,2.08
2017-05-25T16:43:42.767Z,4.38
2017-05-25T16:46:10.208Z,3.78
2017-05-25T16:48:37.666Z,2.94
2017-05-25T16:51:05.198Z,3.40
2017-05-25T16:53:32.922Z,5.26
2017-05-25T16:56:00.404Z,2.20
2017-05-25T16:58:27.850Z,4.52
2017-05-25T17:00:55.281Z,3.52
2017-05-25T17:03:22.795Z,2.30
2017-05-25T17:05:50.184Z,3.30
2017-05-25T17:08:17.637Z,3.10
2017-05-25T17:10:45.118Z,2.54
2017-05-25T17:13:12.573Z,4.18
2017-05-25T17:15:40.012Z,2.58
2017-05-25T17:18:07.670Z,6.54
2017-05-25T17:20:35.104Z,2.84
2017-05-25T17:23:02.536Z,2.94
2017-05-25T17:25:30.032Z,2.32
2017-05-25T17:27:57.452Z,3.02
2017-05-25T17:30:24.946Z,3.44
2017-05-25T17:32:52.390Z,3.02
2017-05-25T17:35:19.818Z,3.42
2017-05-25T17:37:47.244Z,4.64
2017-05-25T17:40:14.704Z,3.60
2017-05-25T17:42:42.132Z,2.26
2017-05-25T17:45:09.573Z,5.86
2017-05-25T17:47:37.040Z,2.90
2017-05-25T17:50:04.476Z,4.10
2017-05-25T17:52:31.906Z,2.42
2017-05-25T17:54:59.361Z,3.96
2017-05-25T17:57:26.796Z,5.10
2017-05-25T17:59:54.254Z,26.56
2017-05-25T18:02:21.703Z,3.64
2017-05-25T18:04:49.242Z,10.82
2017-05-25T18:07:16.889Z,2.78
2017-05-25T18:09:44.321Z,2.76
2017-05-25T18:12:11.810Z,4.60
2017-05-25T18:14:39.369Z,2.56
2017-05-25T18:17:06.812Z,2.86
2017-05-25T18:19:34.242Z,2.62
2017-05-25T18:22:01.702Z,2.08
2017-05-25T18:24:29.137Z,2.26
2017-05-25T18:26:56.589Z,3.20
2017-05-25T18:29:24.069Z,2.58
2017-05-25T18:31:51.500Z,3.12
2017-05-25T18:34:18.943Z,4.00
2017-05-25T18:36:46.402Z,7.36
2017-05-25T18:39:13.834Z,4.36
2017-05-25T18:41:41.292Z,5.82
2017-05-25T18:44:08.772Z,4.74
2017-05-25T18:46:37.076Z,3.00
2017-05-25T18:49:04.523Z,5.56
2017-05-25T18:51:31.969Z,6.60
2017-05-25T18:53:59.400Z,9.74
2017-05-25T18:56:26.837Z,5.80
2017-05-25T18:58:54.296Z,6.38
2017-05-25T19:01:22.712Z,7.10
2017-05-25T19:03:50.159Z,7.30
2017-05-25T19:06:17.635Z,8.58
2017-05-25T19:08:45.080Z,10.68
2017-05-25T19:11:12.618Z,9.20
2017-05-25T19:13:40.086Z,4.42
2017-05-25T19:16:07.518Z,8.26
2017-05-25T19:18:34.949Z,5.58
2017-05-25T19:21:02.393Z,8.04
2017-05-25T19:23:29.829Z,3.02
2017-05-25T19:25:57.329Z,3.00
2017-05-25T19:28:24.766Z,5.44
2017-05-25T19:30:52.209Z,3.90
2017-05-25T19:33:19.669Z,6.28
2017-05-25T19:35:47.102Z,2.64
2017-05-25T19:38:14.569Z,5.30
2017-05-25T19:40:42.002Z,3.84
2017-05-25T19:43:09.454Z,4.10
2017-05-25T19:45:36.903Z,4.66
2017-05-25T19:48:04.339Z,3.74
2017-05-25T19:50:31.794Z,3.88
2017-05-25T19:52:59.256Z,4.70
2017-05-25T19:55:26.702Z,3.66
2017-05-25T19:57:54.150Z,4.14
2017-05-25T20:00:21.660Z,4.64
2017-05-25T20:02:49.255Z,4.06
2017-05-25T20:05:16.758Z,3.80
2017-05-25T20:07:44.201Z,5.46
2017-05-25T20:10:11.769Z,5.26
2017-05-25T20:12:39.289Z,4.48
2017-05-25T20:15:06.745Z,4.74
2017-05-25T20:17:34.280Z,5.04
2017-05-25T20:20:01.713Z,7.24
2017-05-25T20:22:29.255Z,6.82
2017-05-25T20:24:56.809Z,6.54
2017-05-25T20:27:24.337Z,6.74
2017-05-25T20:29:51.794Z,8.32
2017-05-25T20:32:19.232Z,6.32
2017-05-25T20:34:46.704Z,10.02
2017-05-25T20:37:14.146Z,6.88
2017-05-25T20:39:41.599Z,10.00
2017-05-25T20:42:09.024Z,6.74
2017-05-25T20:44:36.473Z,6.04
2017-05-25T20:47:04.055Z,6.68
2017-05-25T20:49:31.512Z,8.98
2017-05-25T20:51:58.950Z,6.76
2017-05-25T20:54:26.386Z,7.48
2017-05-25T20:56:54.369Z,8.68
2017-05-25T20:59:21.811Z,7.90
2017-05-25T21:01:49.258Z,7.30
2017-05-25T21:04:16.701Z,8.12
2017-05-25T21:06:44.149Z,6.36
2017-05-25T21:09:11.983Z,7.80
2017-05-25T21:11:39.420Z,6.68
2017-05-25T21:14:07.281Z,8.66
2017-05-25T21:16:34.740Z,9.02
2017-05-25T21:19:02.578Z,8.50
2017-05-25T21:21:30.013Z,9.18
2017-05-25T21:23:57.466Z,13.14
2017-05-25T21:26:24.904Z,7.62
2017-05-25T21:28:52.346Z,7.70
2017-05-25T21:31:19.797Z,8.46
2017-05-25T21:33:48.178Z,7.26
2017-05-25T21:36:15.632Z,9.48
2017-05-25T21:38:43.084Z,6.38
2017-05-25T21:41:10.523Z,5.74
2017-05-25T21:43:37.949Z,8.62
2017-05-25T21:46:05.393Z,7.94
2017-05-25T21:48:32.845Z,19.88
2017-05-25T21:51:00.328Z,11.26
2017-05-25T21:53:27.765Z,12.64
2017-05-25T21:55:55.241Z,27.96
2017-05-25T21:58:22.678Z,9.08
2017-05-25T22:00:50.120Z,7.14
2017-05-25T22:03:17.577Z,7.62
2017-05-25T22:05:45.008Z,5.70
2017-05-25T22:08:12.448Z,7.52
2017-05-25T22:10:39.893Z,5.84
2017-05-25T22:13:07.340Z,6.88
2017-05-25T22:15:34.785Z,5.64
2017-05-25T22:18:02.241Z,8.44
2017-05-25T22:20:29.737Z,7.22
2017-05-25T22:22:57.189Z,6.10
2017-05-25T22:25:24.661Z,4.92
2017-05-25T22:27:52.101Z,4.02
2017-05-25T22:30:19.553Z,4.28
2017-05-25T22:32:46.981Z,4.96
2017-05-25T22:35:14.452Z,5.38
2017-05-25T22:37:41.896Z,5.16
2017-05-25T22:40:09.336Z,5.14
2017-05-25T22:42:36.781Z,5.62
2017-05-25T22:45:04.439Z,3.92
2017-05-25T22:47:31.879Z,4.56
2017-05-25T22:49:59.417Z,5.80
2017-05-25T22:52:26.869Z,10.94
2017-05-25T22:54:54.309Z,6.90
2017-05-25T22:57:21.747Z,4.76
2017-05-25T22:59:49.190Z,10.60
2017-05-25T23:02:16.625Z,4.82
2017-05-25T23:04:44.069Z,5.50
2017-05-25T23:07:11.513Z,7.70
2017-05-25T23:09:38.956Z,5.70
2017-05-25T23:12:06.396Z,9.12
2017-05-25T23:14:33.870Z,6.10
2017-05-25T23:17:01.429Z,6.50
2017-05-25T23:19:28.864Z,7.94
2017-05-25T23:21:56.310Z,6.42
2017-05-25T23:24:23.753Z,5.68
2017-05-25T23:26:51.200Z,5.34
2017-05-25T23:29:18.646Z,5.02
2017-05-25T23:31:46.150Z,7.00
2017-05-25T23:34:13.566Z,5.66
2017-05-25T23:36:41.024Z,5.12
2017-05-25T23:39:08.479Z,4.90
2017-05-25T23:41:35.936Z,6.12
2017-05-25T23:44:03.373Z,6.72
2017-05-25T23:46:30.829Z,5.92
2017-05-25T23:48:58.278Z,5.24
2017-05-25T23:51:25.758Z,4.80
2017-05-25T23:53:53.201Z,4.38
2017-05-25T23:56:20.640Z,3.94
2017-05-25T23:58:48.089Z,5.06
